Time;durP1;ratioP1;P1;durP2;ratioP2;P2;SDS_P1;SDS_P2;PMS_P1;PMS_P2;Temp;Humidity;BMP_temperature;BMP_pressure;BME280_temperature;BME280_humidity;BME280_pressure;Samples;Min_cycle;Max_cycle;Signal;HPM_P1;HPM_P2
2023/06/27 00:00:35;;;;;;;8.50;5.43;;;;;;;-141.97;79.38;47369.16;5053430;28;20161;-82
2023/06/27 00:03:00;;;;;;;9.73;5.70;;;;;;;-141.97;79.55;47705.53;5052971;28;20161;-83
2023/06/27 00:05:26;;;;;;;8.27;5.70;;;;;;;-141.97;79.45;47632.47;5051180;28;20260;-83
2023/06/27 00:07:51;;;;;;;10.57;5.47;;;;;;;-141.97;79.85;47638.25;5052601;28;20165;-83
2023/06/27 00:10:17;;;;;;;9.57;5.63;;;;;;;-141.97;80.25;47692.06;5052541;28;20232;-83
2023/06/27 00:12:44;;;;;;;9.80;6.27;;;;;;;-141.97;79.91;47818.94;5055201;28;20616;-83
2023/06/27 00:15:10;;;;;;;11.07;6.50;;;;;;;-141.97;79.25;47619.03;5056453;28;20157;-83
2023/06/27 00:17:40;;;;;;;10.17;6.30;;;;;;;-141.97;79.00;47749.72;5056442;28;20196;-83
2023/06/27 00:20:08;;;;;;;10.43;5.77;;;;;;;-141.97;78.82;47413.38;5056861;28;20157;-83
2023/06/27 00:22:34;;;;;;;9.33;6.17;;;;;;;-141.97;79.26;47344.19;5071279;28;20174;-83
2023/06/27 00:25:00;;;;;;;9.93;6.27;;;;;;;-141.97;79.86;47605.56;5056381;28;20166;-83
2023/06/27 00:27:26;;;;;;;10.87;6.80;;;;;;;-141.97;81.66;47730.50;5056711;28;20179;-83
2023/06/27 00:29:51;;;;;;;14.43;8.93;;;;;;;-141.97;81.69;47578.66;5056259;28;20157;-86
2023/06/27 00:32:16;;;;;;;21.37;10.80;;;;;;;-141.97;81.58;47615.19;5056473;28;20173;-83
2023/06/27 00:34:42;;;;;;;16.47;10.70;;;;;;;-141.97;81.80;47630.56;5068199;28;20193;-83
2023/06/27 00:37:07;;;;;;;20.50;11.60;;;;;;;-141.97;81.45;47515.22;5070071;28;20181;-83
2023/06/27 00:39:33;;;;;;;20.97;12.43;;;;;;;-141.97;80.65;47607.50;5067142;28;20185;-83
2023/06/27 00:41:58;;;;;;;20.40;13.07;;;;;;;-141.97;80.48;47559.44;5057958;28;20172;-81
2023/06/27 00:44:24;;;;;;;21.83;13.63;;;;;;;-141.97;80.65;47776.63;5055549;28;20586;-84
2023/06/27 00:46:51;;;;;;;22.90;13.50;;;;;;;-141.97;80.97;47580.59;5056052;28;20161;-84
2023/06/27 00:49:18;;;;;;;29.67;18.10;;;;;;;-141.97;81.19;47772.78;5055898;28;20174;-82
2023/06/27 00:51:47;;;;;;;41.90;22.93;;;;;;;-141.97;81.00;47632.47;5055141;28;20166;-84
2023/06/27 00:54:14;;;;;;;26.00;16.03;;;;;;;-141.97;81.69;47730.50;5055994;28;20189;-84
2023/06/27 00:56:41;;;;;;;26.70;16.77;;;;;;;-141.97;82.28;47349.94;5055381;28;20267;-83
2023/06/27 00:59:06;;;;;;;54.53;31.20;;;;;;;-141.97;82.98;47709.38;5055951;28;20236;-83
2023/06/27 01:01:32;;;;;;;43.90;24.80;;;;;;;-141.97;83.28;47465.25;5055760;28;20570;-83
2023/06/27 01:03:58;;;;;;;27.77;17.97;;;;;;;-141.97;83.48;47778.56;5055348;28;20192;-83
2023/06/27 01:06:35;;;;;;;21.70;13.13;;;;;;;-141.97;83.64;47474.88;5056364;28;20153;-83
2023/06/27 01:09:05;;;;;;;20.83;12.20;;;;;;;-141.97;84.43;47469.09;5061864;28;20216;-81
2023/06/27 01:11:44;;;;;;;19.67;11.50;;;;;;;-141.97;85.19;47597.88;5075084;28;20252;-83
2023/06/27 01:14:10;;;;;;;15.57;11.20;;;;;;;-141.97;85.36;47742.03;5074708;28;20189;-83
2023/06/27 01:16:38;;;;;;;20.57;13.23;;;;;;;-141.97;85.48;47711.28;5057107;28;20182;-82
2023/06/27 01:19:08;;;;;;;22.93;15.20;;;;;;;-141.97;85.80;47384.53;5077681;28;20161;-83
2023/06/27 01:21:36;;;;;;;33.60;20.87;;;;;;;-141.97;85.80;47388.38;5098641;28;20151;-83
2023/06/27 01:24:06;;;;;;;37.73;19.53;;;;;;;-141.97;85.98;47751.66;5098596;28;20175;-83
2023/06/27 01:26:32;;;;;;;41.37;22.27;;;;;;;-141.97;86.09;47805.47;5076924;28;20171;-83
2023/06/27 01:28:57;;;;;;;45.83;25.63;;;;;;;-141.97;86.09;47405.69;5074589;28;20260;-83
2023/06/27 01:31:25;;;;;;;42.67;25.03;;;;;;;-141.97;86.66;47834.31;5074650;28;20176;-83
2023/06/27 01:33:57;;;;;;;45.27;27.17;;;;;;;-141.97;86.95;47369.16;5056868;28;20200;-83
2023/06/27 01:36:45;;;;;;;44.70;26.13;;;;;;;-141.97;87.65;47620.94;5075290;28;20307;-83
2023/06/27 01:39:20;;;;;;;42.17;23.13;;;;;;;-141.97;88.02;47632.47;4996489;28;20222;-83
2023/06/27 01:41:48;;;;;;;33.67;21.70;;;;;;;-141.97;89.16;47413.38;5012552;28;20201;-83
2023/06/27 01:44:17;;;;;;;37.37;22.47;;;;;;;-141.97;90.03;47444.13;5012551;28;20181;-84
2023/06/27 01:46:44;;;;;;;34.60;20.93;;;;;;;-141.97;90.35;47340.34;5011987;28;20171;-84
2023/06/27 01:49:10;;;;;;;34.20;20.03;;;;;;;-141.97;90.50;47626.72;5013437;28;20615;-83
2023/06/27 01:51:36;;;;;;;30.10;17.23;;;;;;;-141.97;91.03;47398.00;5012322;28;20163;-84
2023/06/27 01:54:01;;;;;;;25.70;15.40;;;;;;;-141.97;91.29;47453.72;4995402;28;20585;-83
2023/06/27 01:56:27;;;;;;;24.03;15.50;;;;;;;-141.97;90.92;47680.53;4995286;28;20191;-83
2023/06/27 01:58:53;;;;;;;22.37;14.70;;;;;;;-141.97;90.49;47780.47;5013180;28;20159;-83
2023/06/27 02:01:18;;;;;;;28.30;14.90;;;;;;;-141.97;89.83;47480.63;5013110;28;20660;-84
2023/06/27 02:03:44;;;;;;;21.80;14.07;;;;;;;-141.97;89.03;47788.19;4996658;28;20770;-83
2023/06/27 02:06:09;;;;;;;22.93;13.90;;;;;;;-141.97;89.48;47782.41;5012776;28;20274;-83
2023/06/27 02:08:34;;;;;;;21.37;12.83;;;;;;;-141.97;89.67;47453.72;5012823;28;20245;-83
2023/06/27 02:11:00;;;;;;;21.77;12.80;;;;;;;-141.97;89.30;47684.38;5012384;28;20175;-83
2023/06/27 02:13:26;;;;;;;18.90;11.30;;;;;;;-141.97;90.24;47782.41;5012008;28;20190;-83
2023/06/27 02:15:51;;;;;;;17.17;11.23;;;;;;;-141.97;91.68;47738.19;5031297;28;20193;-83
2023/06/27 02:18:16;;;;;;;16.87;11.43;;;;;;;-141.97;92.96;47572.91;5074199;28;20179;-83
2023/06/27 02:20:42;;;;;;;16.87;11.83;;;;;;;-141.97;92.39;47792.03;5073947;28;20701;-83
2023/06/27 02:23:07;;;;;;;19.90;11.57;;;;;;;-141.97;92.79;47686.31;5073700;28;20157;-83
2023/06/27 02:25:33;;;;;;;17.70;11.27;;;;;;;-141.97;91.95;47634.41;5074124;28;20542;-83
2023/06/27 02:27:58;;;;;;;18.23;11.63;;;;;;;-141.97;92.91;47463.34;5073314;28;20255;-82
2023/06/27 02:30:24;;;;;;;19.30;11.00;;;;;;;-141.97;92.49;47599.81;5073542;28;20168;-83
2023/06/27 02:32:49;;;;;;;19.13;11.43;;;;;;;-141.97;92.33;47670.91;5072874;28;20214;-83
2023/06/27 02:35:16;;;;;;;18.93;11.53;;;;;;;-141.97;92.48;47832.38;5055605;28;20188;-83
2023/06/27 02:37:42;;;;;;;19.67;11.90;;;;;;;-141.97;93.59;47424.91;5073308;28;20167;-82
2023/06/27 02:40:08;;;;;;;20.40;11.83;;;;;;;-141.97;94.47;47672.84;5073422;28;20631;-83
2023/06/27 02:42:34;;;;;;;18.87;11.77;;;;;;;-141.97;95.12;47599.81;5073541;28;20193;-83
2023/06/27 02:44:59;;;;;;;19.83;11.90;;;;;;;-141.97;94.38;47849.69;5073718;28;20275;-83
2023/06/27 02:47:25;;;;;;;18.07;11.13;;;;;;;-141.97;92.79;47476.78;5073395;28;20165;-83
2023/06/27 02:49:50;;;;;;;17.97;10.67;;;;;;;-141.97;91.87;47619.03;5073373;28;20157;-83
2023/06/27 02:52:16;;;;;;;22.53;11.97;;;;;;;-141.97;90.85;47622.88;5055590;28;20856;-83
2023/06/27 02:54:41;;;;;;;20.53;11.90;;;;;;;-141.97;89.71;47638.25;5072726;28;20269;-83
2023/06/27 02:57:06;;;;;;;17.17;10.40;;;;;;;-141.97;89.42;47799.72;5062533;28;20180;-83
2023/06/27 02:59:32;;;;;;;16.17;10.30;;;;;;;-141.97;88.57;47659.38;5053603;28;20169;-84
2023/06/27 03:01:57;;;;;;;16.57;10.40;;;;;;;-141.97;88.05;47553.69;5053153;28;20193;-84
2023/06/27 03:04:24;;;;;;;18.67;12.17;;;;;;;-141.97;87.44;47649.78;5053488;28;20165;-84
2023/06/27 03:06:49;;;;;;;19.97;11.40;;;;;;;-141.97;86.98;47580.59;5054164;28;20165;-84
2023/06/27 03:09:16;;;;;;;19.73;12.63;;;;;;;-141.97;86.72;47665.16;5053360;28;20301;-83
2023/06/27 03:11:41;;;;;;;15.20;9.50;;;;;;;-141.97;86.31;47534.44;5053600;28;20170;-84
2023/06/27 03:14:07;;;;;;;16.97;9.83;;;;;;;-141.97;86.60;47651.69;5052997;28;20185;-84
2023/06/27 03:16:32;;;;;;;15.33;10.13;;;;;;;-141.97;86.41;47653.63;5053450;28;20173;-85
2023/06/27 03:18:58;;;;;;;17.50;10.63;;;;;;;-141.97;86.07;47657.47;5034923;28;20169;-83
2023/06/27 03:21:23;;;;;;;18.20;10.93;;;;;;;-141.97;86.22;47749.72;5053654;28;20526;-83
2023/06/27 03:23:48;;;;;;;24.23;12.97;;;;;;;-141.97;86.34;47636.31;5052772;28;20168;-82
2023/06/27 03:26:14;;;;;;;25.70;14.80;;;;;;;-141.97;87.14;47595.97;5052709;28;20162;-82
2023/06/27 03:28:40;;;;;;;28.57;15.73;;;;;;;-141.97;86.76;47761.25;5052862;28;20161;-84
2023/06/27 03:31:06;;;;;;;30.93;14.13;;;;;;;-141.97;86.44;47534.44;5052994;28;20165;-83
2023/06/27 03:33:31;;;;;;;25.57;14.77;;;;;;;-141.97;86.75;47422.97;5052156;28;20185;-82
2023/06/27 03:35:57;;;;;;;26.90;14.40;;;;;;;-141.97;86.37;47396.06;5052953;28;20165;-82
2023/06/27 03:38:23;;;;;;;24.30;12.70;;;;;;;-141.97;85.76;47378.78;5052364;28;20185;-84
2023/06/27 03:40:48;;;;;;;22.10;12.67;;;;;;;-141.97;85.82;47818.94;5052209;28;20557;-84
2023/06/27 03:43:14;;;;;;;21.50;12.03;;;;;;;-141.97;85.12;47699.75;5052588;28;20176;-82
2023/06/27 03:45:40;;;;;;;26.43;13.23;;;;;;;-141.97;85.34;47392.22;5052578;28;20233;-82
2023/06/27 03:48:06;;;;;;;37.33;20.57;;;;;;;-141.97;86.06;47384.53;5059091;28;20161;-84
2023/06/27 03:50:32;;;;;;;66.27;38.20;;;;;;;-141.97;87.96;47336.50;5066195;28;20204;-83
2023/06/27 03:53:00;;;;;;;57.33;32.03;;;;;;;-141.97;88.80;47642.09;5054119;28;20665;-84
2023/06/27 03:55:26;;;;;;;78.43;42.27;;;;;;;-141.97;88.52;47738.19;5034551;28;20192;-83
2023/06/27 03:57:51;;;;;;;59.63;33.17;;;;;;;-141.97;87.28;47738.19;5052693;28;20598;-82
2023/06/27 04:00:17;;;;;;;66.83;38.53;;;;;;;-141.97;85.94;47413.38;5052480;28;20165;-83
2023/06/27 04:02:42;;;;;;;41.17;24.77;;;;;;;-141.97;85.53;47809.31;5034929;28;20165;-83
2023/06/27 04:05:08;;;;;;;27.63;17.70;;;;;;;-141.97;84.98;47770.88;5052881;28;20169;-83
2023/06/27 04:07:33;;;;;;;28.63;14.50;;;;;;;-141.97;84.66;47740.13;5034686;28;20264;-83
2023/06/27 04:09:59;;;;;;;20.03;11.90;;;;;;;-141.97;84.11;47647.84;5052613;28;20240;-83
2023/06/27 04:12:24;;;;;;;19.27;11.40;;;;;;;-141.97;83.55;47565.22;5067722;28;20165;-83
2023/06/27 04:14:50;;;;;;;18.70;11.00;;;;;;;-141.97;82.95;47634.41;5052290;28;20668;-83
2023/06/27 04:17:15;;;;;;;21.90;12.40;;;;;;;-141.97;82.69;47630.56;5052581;28;20602;-84
2023/06/27 04:19:41;;;;;;;19.37;11.10;;;;;;;-141.97;82.14;47469.09;5052496;28;20169;-83
2023/06/27 04:22:06;;;;;;;21.00;11.23;;;;;;;-141.97;81.82;47711.28;5052235;28;20170;-83
2023/06/27 04:24:32;;;;;;;24.17;12.57;;;;;;;-141.97;81.54;47486.41;5053330;28;20165;-83
2023/06/27 04:26:57;;;;;;;16.43;11.27;;;;;;;-141.97;81.39;47534.44;5052159;28;20176;-83
2023/06/27 04:29:22;;;;;;;18.30;10.87;;;;;;;-141.97;82.07;47453.72;5052327;28;20532;-82
2023/06/27 04:31:50;;;;;;;18.23;11.33;;;;;;;-141.97;81.37;47572.91;5051405;28;20219;-83
2023/06/27 04:34:16;;;;;;;16.97;11.60;;;;;;;-141.97;81.10;47363.41;5034370;28;20286;-84
2023/06/27 04:36:41;;;;;;;18.80;11.13;;;;;;;-141.97;80.36;47563.28;5051803;28;20329;-83
2023/06/27 04:39:10;;;;;;;18.47;11.80;;;;;;;-141.97;81.14;47476.78;5052256;28;20169;-84
2023/06/27 04:41:38;;;;;;;16.43;11.50;;;;;;;-141.97;81.69;47353.78;5050901;28;20169;-84
2023/06/27 04:44:04;;;;;;;20.60;11.00;;;;;;;-141.97;81.00;47736.28;5067420;28;20169;-83
2023/06/27 04:46:29;;;;;;;19.13;11.50;;;;;;;-141.97;80.17;47772.78;5052667;28;20164;-83
2023/06/27 04:48:59;;;;;;;19.90;11.30;;;;;;;-141.97;79.76;47582.50;5051501;28;20196;-83
2023/06/27 04:51:28;;;;;;;19.67;11.03;;;;;;;-141.97;79.33;47830.47;5052766;28;20240;-84
2023/06/27 04:53:54;;;;;;;18.83;11.87;;;;;;;-141.97;79.24;47607.50;5052282;28;20193;-83
2023/06/27 04:56:19;;;;;;;16.40;9.80;;;;;;;-141.97;77.33;47826.63;5035764;28;20632;-84
2023/06/27 04:58:45;;;;;;;15.60;9.87;;;;;;;-141.97;76.37;47647.84;5056132;28;20165;-84
2023/06/27 05:01:11;;;;;;;15.33;9.77;;;;;;;-141.97;76.78;47461.41;5037518;28;20188;-85
2023/06/27 05:03:39;;;;;;;14.40;9.40;;;;;;;-141.97;76.14;47503.69;5037814;28;20211;-83
2023/06/27 05:06:05;;;;;;;14.43;9.00;;;;;;;-141.97;75.55;47601.72;5057547;28;20236;-83
2023/06/27 05:08:32;;;;;;;14.80;8.53;;;;;;;-141.97;73.59;47586.34;5058901;28;20226;-84
2023/06/27 05:10:57;;;;;;;15.20;8.70;;;;;;;-141.97;72.62;47655.53;5056574;28;20164;-84
2023/06/27 05:13:23;;;;;;;12.03;7.90;;;;;;;-141.97;72.91;47586.34;5056736;28;20272;-85
2023/06/27 05:15:48;;;;;;;9.83;7.40;;;;;;;-141.97;72.40;47630.56;5057252;28;20169;-83
2023/06/27 05:18:16;;;;;;;11.37;7.67;;;;;;;-141.97;71.40;47597.88;5070850;28;20276;-84
2023/06/27 05:20:42;;;;;;;16.07;11.27;;;;;;;-141.97;70.77;47530.59;5055748;28;20162;-82
2023/06/27 05:23:11;;;;;;;16.03;8.00;;;;;;;-141.97;68.41;47561.38;5056505;28;20691;-82
2023/06/27 05:25:37;;;;;;;12.43;7.70;;;;;;;-141.97;68.19;47492.16;5056439;28;20169;-85
2023/06/27 05:28:03;;;;;;;12.70;7.57;;;;;;;-141.97;67.41;47603.66;5037923;28;20223;-83
2023/06/27 05:30:30;;;;;;;13.40;7.60;;;;;;;-141.97;67.43;47455.66;5055121;28;20169;-84
2023/06/27 05:32:56;;;;;;;10.67;7.50;;;;;;;-141.97;66.60;47622.88;5054245;28;20672;-84
2023/06/27 05:35:22;;;;;;;11.80;7.43;;;;;;;-141.97;65.73;47515.22;5054107;28;20188;-83
2023/06/27 05:37:47;;;;;;;14.30;7.43;;;;;;;-141.97;66.21;47607.50;5054518;28;20233;-83
2023/06/27 05:40:13;;;;;;;14.23;7.87;;;;;;;-141.97;66.63;47547.91;5055620;28;20556;-84
2023/06/27 05:42:40;;;;;;;14.57;8.10;;;;;;;-141.97;65.66;47786.25;5037173;28;20170;-84
2023/06/27 05:45:06;;;;;;;14.37;8.80;;;;;;;-141.97;65.02;47603.66;5055567;28;20172;-83
2023/06/27 05:47:31;;;;;;;15.60;8.10;;;;;;;-141.97;64.59;47603.66;5056564;28;20173;-83
2023/06/27 05:49:57;;;;;;;18.13;7.50;;;;;;;-141.97;64.14;47711.28;5056742;28;20205;-82
2023/06/27 05:52:23;;;;;;;13.57;7.93;;;;;;;-141.97;64.31;47536.38;5055790;28;20614;-84
2023/06/27 05:54:50;;;;;;;12.47;7.63;;;;;;;-141.97;64.57;47492.16;5053869;28;20656;-83
2023/06/27 05:57:15;;;;;;;14.00;8.03;;;;;;;-141.97;64.58;47584.44;5054777;28;20264;-84
2023/06/27 05:59:40;;;;;;;9.30;7.50;;;;;;;-141.97;63.73;47447.97;5055353;28;20277;-84
2023/06/27 06:02:06;;;;;;;11.63;7.87;;;;;;;-141.97;63.81;47803.56;5055095;28;20165;-83
2023/06/27 06:04:31;;;;;;;14.73;8.37;;;;;;;-141.97;63.65;47795.88;5056233;28;20603;-83
2023/06/27 06:06:58;;;;;;;14.37;7.50;;;;;;;-141.97;62.51;47499.84;5056279;28;20170;-83
2023/06/27 06:09:24;;;;;;;12.07;7.30;;;;;;;-141.97;61.59;47426.81;5060181;28;20209;-83
2023/06/27 06:11:50;;;;;;;13.70;7.50;;;;;;;-141.97;61.45;47578.66;5077873;28;20175;-83
2023/06/27 06:14:15;;;;;;;10.82;7.57;;;;;;;-141.97;60.89;47576.75;5077437;28;20287;-83
2023/06/27 06:16:41;;;;;;;12.80;7.28;;;;;;;-141.97;60.67;47551.75;5060388;28;20179;-84
2023/06/27 06:19:07;;;;;;;9.63;6.65;;;;;;;-141.97;60.11;47461.41;5055107;28;20166;-83
2023/06/27 06:21:33;;;;;;;9.20;6.88;;;;;;;-141.97;59.67;47534.44;5055090;28;20215;-83
2023/06/27 06:23:58;;;;;;;12.45;6.57;;;;;;;-141.97;58.98;47590.19;5055188;28;20167;-84
2023/06/27 06:26:24;;;;;;;12.38;7.30;;;;;;;-141.97;59.51;47594.03;5055719;28;20569;-83
2023/06/27 06:28:49;;;;;;;9.57;7.13;;;;;;;-141.97;58.83;47561.38;5055558;28;20603;-84
2023/06/27 06:31:16;;;;;;;11.07;7.05;;;;;;;-141.97;58.81;47526.75;5054614;28;20175;-83
2023/06/27 06:33:44;;;;;;;10.90;7.30;;;;;;;-141.97;57.96;47519.06;5038349;28;20211;-84
2023/06/27 06:36:09;;;;;;;11.30;7.82;;;;;;;-141.97;58.67;47521.00;5054791;28;20169;-85
2023/06/27 06:38:35;;;;;;;11.43;7.63;;;;;;;-141.97;59.10;47569.06;5054250;28;20169;-82
2023/06/27 06:41:01;;;;;;;12.75;7.50;;;;;;;-141.97;58.37;47722.81;5053922;28;20255;-83
2023/06/27 06:43:27;;;;;;;12.10;7.90;;;;;;;-141.97;57.33;47546.00;5054451;28;20180;-84
2023/06/27 06:45:52;;;;;;;11.77;7.68;;;;;;;-141.97;56.39;47463.34;5054548;28;20167;-83
2023/06/27 06:48:21;;;;;;;11.52;7.90;;;;;;;-141.97;57.40;47553.69;5055058;28;20636;-83
2023/06/27 06:50:47;;;;;;;10.50;7.80;;;;;;;-141.97;57.71;47471.03;5055225;28;20672;-83
2023/06/27 06:53:13;;;;;;;12.38;7.97;;;;;;;-141.97;57.81;47580.59;5053812;28;20188;-84
2023/06/27 06:55:38;;;;;;;11.45;7.32;;;;;;;-141.97;56.59;47542.16;5053757;28;20717;-84
2023/06/27 06:58:04;;;;;;;11.25;7.82;;;;;;;-141.97;55.48;47538.28;5036011;28;20182;-84
2023/06/27 07:00:30;;;;;;;14.18;7.60;;;;;;;-141.97;55.72;47519.06;5054811;28;20235;-84
2023/06/27 07:02:55;;;;;;;11.48;7.90;;;;;;;-141.97;55.47;47524.84;5055021;28;20196;-84
2023/06/27 07:05:21;;;;;;;12.35;8.10;;;;;;;-141.97;54.91;47490.25;5035665;28;20299;-84
2023/06/27 07:07:46;;;;;;;11.43;8.50;;;;;;;-141.97;57.16;47580.59;5053745;28;20221;-83
2023/06/27 07:10:12;;;;;;;11.18;7.82;;;;;;;-141.97;56.28;47351.88;5052493;28;20224;-83
2023/06/27 07:12:37;;;;;;;12.18;7.95;;;;;;;-141.97;54.73;47469.09;5053514;28;20165;-83
2023/06/27 07:15:03;;;;;;;10.32;8.18;;;;;;;-141.97;54.92;47682.47;5073581;28;20488;-84
2023/06/27 07:17:28;;;;;;;11.10;8.07;;;;;;;-141.97;54.11;47517.16;5075362;28;20180;-84
2023/06/27 07:19:54;;;;;;;15.35;8.60;;;;;;;-141.97;53.35;47365.31;5073284;28;20167;-84
2023/06/27 07:22:21;;;;;;;11.82;8.75;;;;;;;-141.97;53.83;47284.59;5074513;28;20244;-84
2023/06/27 07:24:46;;;;;;;12.27;8.10;;;;;;;-141.97;53.24;47511.38;5074608;28;20617;-84
2023/06/27 07:27:12;;;;;;;12.30;7.82;;;;;;;-141.97;52.65;47453.72;5074037;28;20192;-83
2023/06/27 07:29:37;;;;;;;11.93;8.57;;;;;;;-141.97;52.40;47321.13;5067859;28;20207;-84
2023/06/27 07:32:03;;;;;;;13.30;8.00;;;;;;;-141.97;51.91;47505.63;5058529;28;20169;-83
2023/06/27 07:34:28;;;;;;;9.80;8.30;;;;;;;-141.97;51.47;47513.31;5053852;28;20199;-83
2023/06/27 07:36:54;;;;;;;16.45;8.65;;;;;;;-141.97;51.27;47742.03;5053735;28;20688;-83
2023/06/27 07:39:19;;;;;;;11.40;8.90;;;;;;;-141.97;51.68;47617.09;5054506;28;20231;-83
2023/06/27 07:41:44;;;;;;;11.27;8.40;;;;;;;-141.97;52.58;47486.41;5053845;28;20216;-83
2023/06/27 07:44:10;;;;;;;9.90;7.70;;;;;;;-141.97;50.38;47457.56;5053488;28;20188;-83
2023/06/27 07:46:35;;;;;;;12.00;7.57;;;;;;;-141.97;49.80;47484.47;5052908;28;20193;-83
2023/06/27 07:49:01;;;;;;;14.48;8.73;;;;;;;-141.97;49.86;47492.16;5053230;28;20165;-83
2023/06/27 07:51:27;;;;;;;14.30;7.43;;;;;;;-141.97;49.28;47442.19;5053272;28;20162;-83
2023/06/27 07:53:54;;;;;;;10.13;7.10;;;;;;;-141.97;48.45;47465.25;5054351;28;20196;-82
2023/06/27 07:56:20;;;;;;;11.75;8.20;;;;;;;-141.97;49.37;47536.38;5054305;28;20573;-82
2023/06/27 07:58:45;;;;;;;11.90;7.57;;;;;;;-141.97;48.56;47349.94;5052808;28;20252;-83
2023/06/27 08:01:11;;;;;;;11.20;7.88;;;;;;;-141.97;48.59;47540.22;5052844;28;20247;-83
2023/06/27 08:03:37;;;;;;;11.88;7.88;;;;;;;-141.97;47.79;47480.63;5053111;28;20627;-83
2023/06/27 08:06:06;;;;;;;10.05;7.50;;;;;;;-141.97;47.04;47465.25;5053409;28;20166;-83
2023/06/27 08:08:32;;;;;;;11.57;7.22;;;;;;;-141.97;47.16;47478.72;5052456;28;20172;-82
2023/06/27 08:10:57;;;;;;;10.10;7.15;;;;;;;-141.97;46.64;47469.09;5052103;28;20652;-83
2023/06/27 08:13:24;;;;;;;7.15;6.28;;;;;;;-141.97;44.30;47546.00;5052234;28;20669;-82
2023/06/27 08:15:49;;;;;;;8.32;6.45;;;;;;;-141.97;45.12;47440.28;5053267;28;20293;-82
2023/06/27 08:18:15;;;;;;;10.23;7.13;;;;;;;-141.97;45.83;47653.63;5053693;28;20362;-81
2023/06/27 08:20:40;;;;;;;9.02;7.20;;;;;;;-141.97;46.52;47501.78;5053944;28;20598;-83
2023/06/27 08:23:06;;;;;;;8.70;6.93;;;;;;;-141.97;47.25;47501.78;5052624;28;20154;-83
2023/06/27 08:25:32;;;;;;;8.27;6.15;;;;;;;-141.97;45.49;47438.34;5052691;28;20172;-83
2023/06/27 08:27:57;;;;;;;8.00;5.90;;;;;;;-141.97;43.73;47676.69;5051687;28;20652;-83
2023/06/27 08:30:23;;;;;;;7.57;6.22;;;;;;;-141.97;43.87;47432.59;5051773;28;20207;-83
2023/06/27 08:32:48;;;;;;;8.45;6.28;;;;;;;-141.97;43.90;47765.09;5038576;28;20173;-83
2023/06/27 08:35:14;;;;;;;8.90;6.97;;;;;;;-141.97;44.29;47361.47;5070575;28;20161;-82
2023/06/27 08:37:39;;;;;;;9.07;6.68;;;;;;;-141.97;43.82;47715.13;5079049;28;20173;-84
2023/06/27 08:40:05;;;;;;;9.40;6.68;;;;;;;-141.97;43.10;47695.91;5074176;28;20616;-83
2023/06/27 08:42:32;;;;;;;8.57;6.40;;;;;;;-141.97;41.96;47309.59;5056315;28;20245;-82
2023/06/27 08:45:01;;;;;;;16.25;6.35;;;;;;;-141.97;41.33;47432.59;5056592;28;20165;-82
2023/06/27 08:47:29;;;;;;;7.10;5.80;;;;;;;-141.97;40.55;47544.06;5055496;28;20168;-82
2023/06/27 08:50:08;;;;;;;10.02;6.10;;;;;;;-141.97;40.66;47592.13;5055192;28;20268;-83
2023/06/27 08:52:38;;;;;;;7.90;5.90;;;;;;;-141.97;40.12;47432.59;5055149;28;20165;-83
2023/06/27 08:55:06;;;;;;;6.88;5.90;;;;;;;-141.97;39.27;47392.22;5059237;28;20205;-83
2023/06/27 08:57:34;;;;;;;8.63;5.60;;;;;;;-141.97;38.84;47419.13;5055077;28;20161;-83
2023/06/27 09:00:13;;;;;;;7.60;5.85;;;;;;;-141.97;38.90;47565.22;5056348;28;20161;-83
2023/06/27 09:02:40;;;;;;;8.07;5.45;;;;;;;-141.97;39.58;47446.03;5055633;28;20165;-83
2023/06/27 09:05:07;;;;;;;6.25;5.50;;;;;;;-141.97;39.77;47382.63;5055834;28;20563;-84
2023/06/27 09:07:33;;;;;;;7.00;5.68;;;;;;;-141.97;39.79;47396.06;5055331;28;20172;-84
2023/06/27 09:09:59;;;;;;;7.70;6.03;;;;;;;-141.97;39.28;47722.81;5054511;28;20213;-84
2023/06/27 09:12:27;;;;;;;6.65;5.40;;;;;;;-141.97;38.00;47259.63;5055446;28;20185;-83
2023/06/27 09:14:53;;;;;;;6.63;5.00;;;;;;;-141.97;38.15;47638.25;5055644;28;20276;-83
2023/06/27 09:17:18;;;;;;;7.15;5.07;;;;;;;-141.97;37.42;47626.72;5053663;28;20268;-83
2023/06/27 09:19:44;;;;;;;8.45;5.32;;;;;;;-141.97;37.35;47430.66;5055422;28;20173;-84
2023/06/27 09:22:10;;;;;;;7.53;5.10;;;;;;;-141.97;37.64;47330.72;5055102;28;20165;-83
2023/06/27 09:24:40;;;;;;;6.43;5.20;;;;;;;-141.97;37.54;47422.97;5055841;28;20162;-84
2023/06/27 09:27:26;;;;;;;5.30;4.68;;;;;;;-141.97;37.20;47561.38;5056532;28;20552;-82
2023/06/27 09:29:51;;;;;;;7.45;5.38;;;;;;;-141.97;37.77;47434.50;5057794;28;20193;-82
2023/06/27 09:32:17;;;;;;;8.00;5.20;;;;;;;-141.97;37.29;47413.38;5057277;28;20166;-82
2023/06/27 09:34:42;;;;;;;6.60;5.13;;;;;;;-141.97;37.52;47640.16;5056563;28;20200;-83
2023/06/27 09:37:08;;;;;;;12.98;5.88;;;;;;;-141.97;37.12;47620.94;5057139;28;20581;-83
2023/06/27 09:39:33;;;;;;;6.72;5.05;;;;;;;-141.97;37.04;47323.03;5057013;28;20166;-82
2023/06/27 09:41:58;;;;;;;6.05;4.50;;;;;;;-141.97;36.33;47348.03;5057139;28;20172;-84
2023/06/27 09:44:27;;;;;;;6.82;5.03;;;;;;;-141.97;36.92;47655.53;5055994;28;20220;-83
2023/06/27 09:46:52;;;;;;;6.50;4.53;;;;;;;-141.97;36.24;47307.66;5057458;28;20169;-83
2023/06/27 09:49:19;;;;;;;5.80;4.70;;;;;;;-141.97;35.66;47424.91;5057327;28;20161;-82
2023/06/27 09:51:46;;;;;;;7.10;4.47;;;;;;;-141.97;35.40;47367.25;5057165;28;20181;-83
2023/06/27 09:54:17;;;;;;;7.05;4.95;;;;;;;-141.97;36.43;47298.06;5056535;28;20270;-83
2023/06/27 09:56:43;;;;;;;6.30;4.60;;;;;;;-141.97;35.78;47371.09;5056227;28;20165;-83
2023/06/27 09:59:10;;;;;;;8.38;5.00;;;;;;;-141.97;35.83;47538.28;5056717;28;20169;-82
2023/06/27 10:01:39;;;;;;;6.47;5.18;;;;;;;-141.97;35.90;47663.22;5056136;28;20189;-82
2023/06/27 10:04:06;;;;;;;7.35;5.72;;;;;;;-141.97;36.27;47407.59;5056422;28;20165;-83
2023/06/27 10:06:32;;;;;;;8.07;6.28;;;;;;;-141.97;36.43;47405.69;5041527;28;20173;-83
2023/06/27 10:08:58;;;;;;;7.10;5.80;;;;;;;-141.97;36.38;47390.31;5056527;28;20236;-82
2023/06/27 10:11:24;;;;;;;8.07;6.10;;;;;;;-141.97;35.73;47396.06;5056221;28;20169;-83
2023/06/27 10:13:51;;;;;;;6.47;5.60;;;;;;;-141.97;35.95;47334.56;5059433;28;20213;-82
2023/06/27 10:16:20;;;;;;;5.80;5.13;;;;;;;-141.97;35.92;47676.69;5056698;28;20184;-82
2023/06/27 10:18:47;;;;;;;6.63;5.47;;;;;;;-141.97;35.76;47605.56;5057657;28;20176;-82
2023/06/27 10:21:19;;;;;;;15.40;6.00;;;;;;;-141.97;35.93;47424.91;5061146;28;20158;-84
2023/06/27 10:23:49;;;;;;;6.47;5.10;;;;;;;-141.97;36.21;47390.31;5066150;28;20155;-84
2023/06/27 10:26:18;;;;;;;6.38;4.78;;;;;;;-141.97;36.47;47415.28;5059288;28;20635;-81
2023/06/27 10:28:51;;;;;;;6.65;5.30;;;;;;;-141.97;36.47;47221.19;5063475;28;20235;-82
2023/06/27 10:31:44;;;;;;;9.20;5.43;;;;;;;-141.97;36.13;47398.00;5055124;28;20223;-82
2023/06/27 10:34:20;;;;;;;6.07;5.20;;;;;;;-141.97;35.03;47469.09;5014895;28;20218;-82
2023/06/27 10:36:54;;;;;;;7.65;5.38;;;;;;;-141.97;34.56;47373.00;5014389;28;20186;-84
2023/06/27 10:39:33;;;;;;;8.50;5.65;;;;;;;-141.97;35.14;47365.31;5014382;28;20199;-83
2023/06/27 10:42:05;;;;;;;7.82;6.05;;;;;;;-141.97;35.53;47407.59;5013630;28;20255;-82
2023/06/27 10:44:35;;;;;;;6.63;5.78;;;;;;;-141.97;36.13;47411.44;5014657;28;20266;-83
2023/06/27 10:47:15;;;;;;;8.68;7.88;;;;;;;-141.97;36.15;47411.44;5015559;28;20243;-82
2023/06/27 10:49:45;;;;;;;6.40;5.68;;;;;;;-141.97;36.04;47388.38;5017552;28;20174;-85
2023/06/27 10:52:19;;;;;;;9.80;6.07;;;;;;;-141.97;36.31;47265.38;5013389;28;20193;-83
2023/06/27 10:54:44;;;;;;;6.43;5.53;;;;;;;-141.97;35.85;47236.56;5012166;28;20201;-82
2023/06/27 10:57:16;;;;;;;6.57;5.63;;;;;;;-141.97;35.06;47401.84;5012077;28;20163;-82
2023/06/27 10:59:46;;;;;;;6.22;5.63;;;;;;;-141.97;34.86;47388.38;5019458;28;20574;-82
2023/06/27 11:02:12;;;;;;;7.63;5.60;;;;;;;-141.97;35.08;47313.44;5035872;28;20158;-83
2023/06/27 11:04:44;;;;;;;7.00;5.70;;;;;;;-141.97;34.58;47386.47;5035099;28;20198;-82
2023/06/27 11:07:17;;;;;;;6.53;5.80;;;;;;;-141.97;34.62;47553.69;5012103;28;20171;-82